createdAt,value
2023-01-20T00:01:49.295Z,29.45
2023-01-20T00:04:21.649Z,29.33
2023-01-20T00:06:51.374Z,29.17
2023-01-20T00:09:20.707Z,27.13
2023-01-20T00:11:50.045Z,27.00
2023-01-20T00:14:19.400Z,26.63
2023-01-20T00:16:48.505Z,26.30
2023-01-20T00:19:20.507Z,26.20
2023-01-20T00:21:50.136Z,30.83
2023-01-20T00:24:19.469Z,27.98
2023-01-20T00:26:48.592Z,32.25
2023-01-20T00:29:17.900Z,42.78
2023-01-20T00:31:47.290Z,39.47
2023-01-20T00:34:16.528Z,36.70
2023-01-20T00:36:45.616Z,33.58
2023-01-20T00:39:14.818Z,33.20
2023-01-20T00:41:43.985Z,35.30
2023-01-20T00:44:12.836Z,38.55
2023-01-20T00:46:42.122Z,40.72
2023-01-20T00:49:12.232Z,42.25
2023-01-20T00:51:41.244Z,43.67
2023-01-20T00:54:10.746Z,42.92
2023-01-20T00:56:40.186Z,42.70
2023-01-20T00:59:11.753Z,40.13
2023-01-20T01:01:42.230Z,43.05
2023-01-20T01:04:12.625Z,42.72
2023-01-20T01:06:44.956Z,46.17
2023-01-20T01:11:48.891Z,48.85
2023-01-20T01:14:20.136Z,51.30
2023-01-20T01:16:50.611Z,55.75
2023-01-20T01:19:21.050Z,56.65
2023-01-20T01:21:51.110Z,60.60
2023-01-20T01:24:20.597Z,66.30
2023-01-20T01:26:51.017Z,70.35
2023-01-20T01:29:20.396Z,73.55
2023-01-20T01:31:49.913Z,73.43
2023-01-20T01:34:19.242Z,74.53
2023-01-20T01:36:48.837Z,74.15
2023-01-20T01:39:18.049Z,74.20
2023-01-20T01:41:47.276Z,76.00
2023-01-20T01:44:16.868Z,75.40
2023-01-20T01:46:46.019Z,78.85
2023-01-20T01:49:24.213Z,78.25
2023-01-20T01:52:05.476Z,80.75
2023-01-20T01:54:41.506Z,82.22
2023-01-20T01:57:11.416Z,84.88
2023-01-20T01:59:41.119Z,83.22
2023-01-20T02:02:10.604Z,85.30
2023-01-20T02:04:39.922Z,79.20
2023-01-20T02:07:19.344Z,77.85
2023-01-20T02:09:49.454Z,72.32
2023-01-20T02:12:22.167Z,72.50
2023-01-20T02:14:56.126Z,69.63
2023-01-20T02:17:31.687Z,71.75
2023-01-20T02:20:38.574Z,69.82
2023-01-20T02:23:15.975Z,63.45
2023-01-20T02:26:06.561Z,67.90
2023-01-20T02:28:52.829Z,64.18
2023-01-20T02:31:34.843Z,61.08
2023-01-20T02:34:13.071Z,54.80
2023-01-20T02:37:20.231Z,59.10
2023-01-20T02:39:55.358Z,59.03
2023-01-20T02:42:45.007Z,56.50
2023-01-20T02:45:37.937Z,58.00
2023-01-20T02:51:05.309Z,57.30
2023-01-20T02:53:42.032Z,64.55
2023-01-20T02:56:14.303Z,67.97
2023-01-20T02:59:14.587Z,73.68
2023-01-20T03:02:17.990Z,66.68
2023-01-20T03:04:54.160Z,67.43
2023-01-20T03:07:28.300Z,78.57
2023-01-20T03:10:02.811Z,80.45
2023-01-20T03:12:42.328Z,82.45
2023-01-20T03:15:13.137Z,77.85
2023-01-20T03:17:43.053Z,73.78
2023-01-20T03:20:12.734Z,74.97
2023-01-20T03:22:42.605Z,73.25
2023-01-20T03:25:16.070Z,73.60
2023-01-20T03:27:45.651Z,74.43
2023-01-20T03:30:16.830Z,73.88
2023-01-20T03:32:50.053Z,69.05
2023-01-20T03:35:20.133Z,64.30
2023-01-20T03:37:49.571Z,63.30
2023-01-20T03:40:19.292Z,64.78
2023-01-20T03:42:58.602Z,67.57
2023-01-20T03:45:54.393Z,70.63
2023-01-20T03:48:45.358Z,65.50
2023-01-20T03:51:27.401Z,65.70
2023-01-20T03:54:14.462Z,63.38
2023-01-20T03:57:13.669Z,66.57
2023-01-20T03:59:46.027Z,62.28
2023-01-20T04:02:15.989Z,62.28
2023-01-20T04:04:48.645Z,62.85
2023-01-20T04:09:55.839Z,63.38
2023-01-20T04:12:25.346Z,65.50
2023-01-20T04:14:54.602Z,60.97
2023-01-20T04:17:31.165Z,63.00
2023-01-20T04:20:11.549Z,56.67
2023-01-20T04:22:42.822Z,55.50
2023-01-20T04:25:32.288Z,59.85
2023-01-20T04:28:02.209Z,54.22
2023-01-20T04:30:31.536Z,64.43
2023-01-20T04:33:01.163Z,56.95
2023-01-20T04:35:30.453Z,61.92
2023-01-20T04:38:00.098Z,56.70
2023-01-20T04:40:29.631Z,53.75
2023-01-20T04:42:59.002Z,56.40
2023-01-20T04:45:28.763Z,53.05
2023-01-20T04:47:58.603Z,54.45
2023-01-20T04:50:28.020Z,56.67
2023-01-20T04:53:00.623Z,53.20
2023-01-20T04:55:30.688Z,50.65
2023-01-20T04:58:00.462Z,52.35
2023-01-20T05:00:30.221Z,50.85
2023-01-20T05:03:00.214Z,54.22
2023-01-20T05:05:30.248Z,51.40
2023-01-20T05:08:00.731Z,54.25
2023-01-20T05:10:30.807Z,54.60
2023-01-20T05:13:00.514Z,54.80
2023-01-20T05:15:30.057Z,55.72
2023-01-20T05:17:59.592Z,55.05
2023-01-20T05:20:30.394Z,55.25
2023-01-20T05:23:01.358Z,58.45
2023-01-20T05:25:31.140Z,76.55
2023-01-20T05:28:02.978Z,62.20
2023-01-20T05:30:32.411Z,61.67
2023-01-20T05:33:02.204Z,67.32
2023-01-20T05:35:32.101Z,79.93
2023-01-20T05:38:01.385Z,72.75
2023-01-20T05:40:31.055Z,67.90
2023-01-20T05:43:04.322Z,73.60
2023-01-20T05:45:34.474Z,67.40
2023-01-20T05:48:04.347Z,75.15
2023-01-20T05:50:33.725Z,71.25
2023-01-20T05:53:03.287Z,72.68
2023-01-20T05:55:33.396Z,69.40
2023-01-20T05:58:06.274Z,71.15
2023-01-20T06:00:36.421Z,68.75
2023-01-20T06:03:06.861Z,63.20
2023-01-20T06:05:37.204Z,57.63
2023-01-20T06:08:06.972Z,63.60
2023-01-20T06:10:37.083Z,65.82
2023-01-20T06:13:06.540Z,66.75
2023-01-20T06:15:35.771Z,68.97
2023-01-20T06:18:05.283Z,61.53
2023-01-20T06:20:34.655Z,65.35
2023-01-20T06:23:03.955Z,63.72
2023-01-20T06:25:33.715Z,65.03
2023-01-20T06:28:03.713Z,64.68
2023-01-20T06:30:33.058Z,68.63
2023-01-20T06:33:02.627Z,64.40
2023-01-20T06:35:34.709Z,60.55
2023-01-20T06:40:34.270Z,56.92
2023-01-20T06:43:04.153Z,63.38
2023-01-20T06:45:33.485Z,62.38
2023-01-20T06:48:02.971Z,58.45
2023-01-20T06:50:35.506Z,64.15
2023-01-20T06:53:04.875Z,64.43
2023-01-20T06:55:34.411Z,63.60
2023-01-20T06:58:03.515Z,65.30
2023-01-20T07:00:32.741Z,65.47
2023-01-20T07:03:02.028Z,65.72
2023-01-20T07:05:31.068Z,66.00
2023-01-20T07:08:00.467Z,63.50
2023-01-20T07:10:29.616Z,66.28
2023-01-20T07:12:59.068Z,60.58
2023-01-20T07:15:28.338Z,57.83
2023-01-20T07:17:58.034Z,52.20
2023-01-20T07:20:27.355Z,47.20
2023-01-20T07:22:56.589Z,45.03
2023-01-20T07:25:26.431Z,43.10
2023-01-20T07:27:56.326Z,41.50
2023-01-20T07:30:26.687Z,42.00
2023-01-20T07:32:56.160Z,39.97
2023-01-20T07:35:25.540Z,38.90
2023-01-20T07:37:55.008Z,39.47
2023-01-20T07:40:24.489Z,42.55
2023-01-20T07:42:53.148Z,41.08
2023-01-20T07:45:22.562Z,38.30
2023-01-20T07:47:51.959Z,35.28
2023-01-20T07:50:21.332Z,39.08
2023-01-20T07:52:50.815Z,38.45
2023-01-20T07:55:20.603Z,40.08
2023-01-20T07:57:50.015Z,40.75
2023-01-20T08:00:22.503Z,43.75
2023-01-20T08:05:21.604Z,37.00
2023-01-20T08:07:55.126Z,40.40
2023-01-20T08:10:24.643Z,44.72
2023-01-20T08:12:54.352Z,43.50
2023-01-20T08:15:24.104Z,39.78
2023-01-20T08:17:58.573Z,33.88
2023-01-20T08:20:28.575Z,35.00
2023-01-20T08:22:58.241Z,37.20
2023-01-20T08:25:28.451Z,35.90
2023-01-20T08:27:58.135Z,30.73
2023-01-20T08:30:27.666Z,31.40
2023-01-20T08:32:57.708Z,27.20
2023-01-20T08:35:27.672Z,25.65
2023-01-20T08:37:57.249Z,28.42
2023-01-20T08:40:26.898Z,26.33
2023-01-20T08:42:56.544Z,25.67
2023-01-20T08:45:26.399Z,25.00
2023-01-20T08:47:56.365Z,22.45
2023-01-20T08:50:26.275Z,21.48
2023-01-20T08:52:55.975Z,20.00
2023-01-20T08:55:25.658Z,21.92
2023-01-20T08:57:55.199Z,20.77
2023-01-20T09:00:25.106Z,17.77
2023-01-20T09:02:55.193Z,31.98
2023-01-20T09:05:25.154Z,19.30
2023-01-20T09:07:54.786Z,22.40
2023-01-20T09:10:24.701Z,17.45
2023-01-20T09:12:54.019Z,18.20
2023-01-20T09:15:25.641Z,16.25
2023-01-20T09:17:55.934Z,14.93
2023-01-20T09:20:25.939Z,14.93
2023-01-20T09:22:55.573Z,13.80
2023-01-20T09:25:24.987Z,13.80
2023-01-20T09:27:54.683Z,12.95
2023-01-20T09:30:24.248Z,14.07
2023-01-20T09:32:56.652Z,15.38
2023-01-20T09:35:26.550Z,13.63
2023-01-20T09:38:14.725Z,16.40
2023-01-20T09:41:25.498Z,18.17
2023-01-20T09:44:02.986Z,21.85
2023-01-20T09:46:45.341Z,23.42
2023-01-20T09:49:56.297Z,24.60
2023-01-20T09:52:53.616Z,24.38
2023-01-20T09:55:45.497Z,26.58
2023-01-20T09:58:31.529Z,27.58
2023-01-20T10:01:32.051Z,26.88
2023-01-20T10:04:33.849Z,26.65
2023-01-20T10:07:15.452Z,28.23
2023-01-20T10:10:00.768Z,28.02
2023-01-20T10:15:13.748Z,28.58
2023-01-20T10:18:01.776Z,28.58
2023-01-20T10:20:58.724Z,31.75
2023-01-20T10:23:53.544Z,44.42
2023-01-20T10:26:40.881Z,28.27
2023-01-20T10:29:19.468Z,26.25
2023-01-20T10:32:25.458Z,28.73
2023-01-20T10:34:59.513Z,24.63
2023-01-20T10:37:31.664Z,25.00
2023-01-20T10:40:35.315Z,27.30
2023-01-20T10:43:16.865Z,26.58
2023-01-20T10:45:56.259Z,27.83
2023-01-20T10:48:33.467Z,33.05
2023-01-20T10:51:02.947Z,33.55
2023-01-20T10:53:51.854Z,39.38
2023-01-20T10:56:36.414Z,38.88
2023-01-20T10:59:17.291Z,41.88
2023-01-20T11:02:02.526Z,52.95
2023-01-20T11:04:40.874Z,43.20
2023-01-20T11:07:19.695Z,44.35
2023-01-20T11:09:50.381Z,43.47
2023-01-20T11:12:27.509Z,45.15
2023-01-20T11:15:01.242Z,41.53
2023-01-20T11:17:30.954Z,39.25
2023-01-20T11:20:08.191Z,42.72
2023-01-20T11:22:39.601Z,40.22
2023-01-20T11:25:26.888Z,41.92
2023-01-20T11:27:56.574Z,41.97
2023-01-20T11:30:35.740Z,45.13
2023-01-20T11:33:18.066Z,43.88
2023-01-20T11:36:06.437Z,44.83
2023-01-20T11:38:50.419Z,43.63
2023-01-20T11:41:31.420Z,44.35
2023-01-20T11:44:02.608Z,46.38
2023-01-20T11:46:39.565Z,48.05
2023-01-20T11:49:23.359Z,46.40
2023-01-20T11:51:59.678Z,45.70
2023-01-20T11:54:31.758Z,46.63
2023-01-20T11:57:08.743Z,48.63
2023-01-20T11:59:47.820Z,47.67
2023-01-20T12:02:17.399Z,48.13
2023-01-20T12:04:54.220Z,48.67
2023-01-20T12:07:47.871Z,49.13
2023-01-20T12:10:29.725Z,44.20
2023-01-20T12:13:19.003Z,44.80
2023-01-20T12:15:55.992Z,45.78
2023-01-20T12:18:31.796Z,49.70
2023-01-20T12:21:10.474Z,50.25
2023-01-20T12:23:46.738Z,47.55
2023-01-20T12:26:19.514Z,49.85
2023-01-20T12:29:09.134Z,45.10
2023-01-20T12:31:39.035Z,47.90
2023-01-20T12:34:22.516Z,51.08
2023-01-20T12:37:12.979Z,48.88
2023-01-20T12:39:48.485Z,46.55
2023-01-20T12:42:36.297Z,46.13
2023-01-20T12:45:12.392Z,42.40
2023-01-20T12:48:18.879Z,41.10
2023-01-20T12:51:09.305Z,42.95
2023-01-20T12:53:44.786Z,44.08
2023-01-20T12:56:47.767Z,42.50
2023-01-20T12:59:45.312Z,41.00
2023-01-20T13:02:17.891Z,44.15
2023-01-20T13:07:16.828Z,42.13
2023-01-20T13:09:58.529Z,43.53
2023-01-20T13:12:52.525Z,42.40
2023-01-20T13:15:38.137Z,41.67
2023-01-20T13:18:26.403Z,40.00
2023-01-20T13:20:57.184Z,40.40
2023-01-20T13:23:34.948Z,42.85
2023-01-20T13:26:06.780Z,41.55
2023-01-20T13:28:36.597Z,41.75
2023-01-20T13:31:38.211Z,44.10
2023-01-20T13:34:23.512Z,39.58
2023-01-20T13:37:05.308Z,40.38
2023-01-20T13:39:47.167Z,42.97
2023-01-20T13:42:38.053Z,38.45
2023-01-20T13:45:13.934Z,39.45
2023-01-20T13:48:08.384Z,39.63
2023-01-20T13:50:40.261Z,39.42
2023-01-20T13:53:12.790Z,41.60
2023-01-20T13:55:50.555Z,43.35
2023-01-20T13:58:27.222Z,39.72
2023-01-20T14:01:00.900Z,40.40
2023-01-20T14:03:31.704Z,40.25
2023-01-20T14:06:19.670Z,40.40
2023-01-20T14:08:51.800Z,42.85
2023-01-20T14:11:24.371Z,41.65
2023-01-20T14:16:30.677Z,38.83
2023-01-20T14:19:36.379Z,39.88
2023-01-20T14:22:24.980Z,39.28
2023-01-20T14:25:01.226Z,40.33
2023-01-20T14:27:34.534Z,43.05
2023-01-20T14:30:26.249Z,39.17
2023-01-20T14:32:56.098Z,58.42
2023-01-20T14:35:35.240Z,55.05
2023-01-20T14:38:05.147Z,45.92
2023-01-20T14:40:37.457Z,40.55
2023-01-20T14:43:21.449Z,41.78
2023-01-20T14:45:55.975Z,43.42
2023-01-20T14:48:34.532Z,43.65
2023-01-20T14:51:07.054Z,45.00
2023-01-20T14:53:37.428Z,39.35
2023-01-20T14:56:20.311Z,43.53
2023-01-20T15:01:25.891Z,40.85
2023-01-20T15:04:04.226Z,42.20
2023-01-20T15:06:34.000Z,42.35
2023-01-20T15:09:06.927Z,41.92
2023-01-20T15:11:37.894Z,42.35
2023-01-20T15:14:11.848Z,44.08
2023-01-20T15:16:48.648Z,41.90
2023-01-20T15:19:18.582Z,40.10
2023-01-20T15:21:51.282Z,40.58
2023-01-20T15:26:53.808Z,40.17
2023-01-20T15:29:28.241Z,42.00
2023-01-20T15:32:00.315Z,44.38
2023-01-20T15:34:30.901Z,47.47
2023-01-20T15:37:00.747Z,48.17
2023-01-20T15:39:31.326Z,51.15
2023-01-20T15:42:02.665Z,49.40
2023-01-20T15:44:32.414Z,52.28
2023-01-20T15:47:02.417Z,61.97
2023-01-20T15:49:31.896Z,65.60
2023-01-20T15:52:01.518Z,63.08
2023-01-20T15:54:31.083Z,62.15
2023-01-20T15:57:01.671Z,59.67
2023-01-20T15:59:33.626Z,57.40
2023-01-20T16:02:03.651Z,58.30
2023-01-20T16:04:33.514Z,48.22
2023-01-20T16:07:03.145Z,50.50
2023-01-20T16:09:38.386Z,48.80
2023-01-20T16:12:08.101Z,44.47
2023-01-20T16:14:40.549Z,44.65
2023-01-20T16:19:47.875Z,42.58
2023-01-20T16:22:18.504Z,44.95
2023-01-20T16:24:50.426Z,45.10
2023-01-20T16:27:24.923Z,41.92
2023-01-20T16:29:57.271Z,48.55
2023-01-20T16:32:28.253Z,40.95
2023-01-20T16:34:58.853Z,41.03
2023-01-20T16:37:29.621Z,42.35
2023-01-20T16:40:00.748Z,43.85
2023-01-20T16:42:32.761Z,40.42
2023-01-20T16:45:06.989Z,44.35
2023-01-20T16:47:37.525Z,44.63
2023-01-20T16:50:08.597Z,39.90
2023-01-20T16:52:38.868Z,42.03
2023-01-20T16:55:11.603Z,40.90
2023-01-20T16:57:45.172Z,41.15
2023-01-20T17:00:18.694Z,43.50
2023-01-20T17:02:55.641Z,41.40
2023-01-20T17:05:29.274Z,46.75
2023-01-20T17:08:01.591Z,48.47
2023-01-20T17:10:36.719Z,52.63
2023-01-20T17:13:14.591Z,53.13
2023-01-20T17:15:45.192Z,63.90
2023-01-20T17:18:15.577Z,74.38
2023-01-20T17:20:46.052Z,77.72
2023-01-20T17:23:19.966Z,72.95
2023-01-20T17:25:50.583Z,70.70
2023-01-20T17:28:20.953Z,54.88
2023-01-20T17:30:51.592Z,50.72
2023-01-20T17:33:22.089Z,48.47
2023-01-20T17:36:05.456Z,45.22
2023-01-20T17:38:37.526Z,45.85
2023-01-20T17:41:16.786Z,44.42
2023-01-20T17:43:50.922Z,48.90
2023-01-20T17:46:23.759Z,50.65
2023-01-20T17:48:54.365Z,54.70
2023-01-20T17:51:27.202Z,57.13
2023-01-20T17:54:03.415Z,58.83
2023-01-20T17:56:34.495Z,63.30
2023-01-20T17:59:09.120Z,72.85
2023-01-20T18:01:45.542Z,77.68
2023-01-20T18:04:16.196Z,75.23
2023-01-20T18:06:52.171Z,76.03
2023-01-20T18:09:22.841Z,75.53
2023-01-20T18:11:53.447Z,79.72
2023-01-20T18:14:23.823Z,76.40
2023-01-20T18:16:55.704Z,75.03
2023-01-20T18:19:25.994Z,74.25
2023-01-20T18:21:56.313Z,82.28
2023-01-20T18:24:26.531Z,79.90
2023-01-20T18:26:57.937Z,78.43
2023-01-20T18:29:31.091Z,73.63
2023-01-20T18:32:01.186Z,67.20
2023-01-20T18:34:31.063Z,52.70
2023-01-20T18:37:00.813Z,53.25
2023-01-20T18:39:31.259Z,53.28
2023-01-20T18:42:01.451Z,55.10
2023-01-20T18:44:31.607Z,55.67
2023-01-20T18:47:01.481Z,57.22
2023-01-20T18:52:51.243Z,61.80
2023-01-20T18:55:20.935Z,76.13
2023-01-20T18:57:50.449Z,79.32
2023-01-20T19:00:20.516Z,97.18
2023-01-20T19:02:53.739Z,113.55
2023-01-20T19:05:23.409Z,124.25
2023-01-20T19:07:53.488Z,130.60
2023-01-20T19:10:23.080Z,135.52
2023-01-20T19:12:53.885Z,145.85
2023-01-20T19:15:23.353Z,148.70
2023-01-20T19:17:56.110Z,140.13
2023-01-20T19:20:25.896Z,140.68
2023-01-20T19:22:55.394Z,142.80
2023-01-20T19:25:30.714Z,152.35
2023-01-20T19:28:00.360Z,163.65
2023-01-20T19:30:30.367Z,169.15
2023-01-20T19:32:59.749Z,160.27
2023-01-20T19:35:31.402Z,159.52
2023-01-20T19:38:01.102Z,147.07
2023-01-20T19:40:30.617Z,129.75
2023-01-20T19:43:02.169Z,123.35
2023-01-20T19:45:44.879Z,116.60
2023-01-20T19:48:15.468Z,122.00
2023-01-20T19:50:45.345Z,120.45
2023-01-20T19:53:14.940Z,120.43
2023-01-20T19:55:44.596Z,118.90
2023-01-20T19:58:14.076Z,112.32
2023-01-20T20:00:43.520Z,100.05
2023-01-20T20:03:13.170Z,90.15
2023-01-20T20:05:42.628Z,82.70
2023-01-20T20:08:12.319Z,84.22
2023-01-20T20:10:45.141Z,78.00
2023-01-20T20:13:14.671Z,73.05
2023-01-20T20:15:44.185Z,75.13
2023-01-20T20:18:13.840Z,80.07
2023-01-20T20:20:46.220Z,80.35
2023-01-20T20:23:15.782Z,78.47
2023-01-20T20:25:51.167Z,81.13
2023-01-20T20:28:20.782Z,88.28
2023-01-20T20:30:50.245Z,85.63
2023-01-20T20:33:20.411Z,82.32
2023-01-20T20:35:50.488Z,76.40
2023-01-20T20:38:20.410Z,69.13
2023-01-20T20:40:50.093Z,60.47
2023-01-20T20:43:24.061Z,60.63
2023-01-20T20:46:00.566Z,60.17
2023-01-20T20:48:30.983Z,59.92
2023-01-20T20:51:07.236Z,56.63
2023-01-20T20:53:37.118Z,53.15
2023-01-20T20:56:11.884Z,46.38
2023-01-20T20:58:55.532Z,42.80
2023-01-20T21:01:29.917Z,41.03
2023-01-20T21:04:01.575Z,45.40
2023-01-20T21:06:32.018Z,47.13
2023-01-20T21:09:02.046Z,54.72
2023-01-20T21:11:31.594Z,55.47
2023-01-20T21:14:01.131Z,53.67
2023-01-20T21:16:31.038Z,56.65
2023-01-20T21:19:02.383Z,53.75
2023-01-20T21:21:32.066Z,58.00
2023-01-20T21:24:01.394Z,65.07
2023-01-20T21:26:31.140Z,61.78
2023-01-20T21:29:04.949Z,49.38
2023-01-20T21:31:35.671Z,43.25
2023-01-20T21:34:05.510Z,39.67
2023-01-20T21:36:35.748Z,38.75
2023-01-20T21:39:06.451Z,43.85
2023-01-20T21:41:36.237Z,45.25
2023-01-20T21:44:23.886Z,47.38
2023-01-20T21:46:53.586Z,57.00
2023-01-20T21:49:41.303Z,68.47
2023-01-20T21:52:34.602Z,75.65
2023-01-20T21:55:05.476Z,74.88
2023-01-20T21:57:35.291Z,75.22
2023-01-20T22:00:08.161Z,65.30
2023-01-20T22:02:48.130Z,65.72
2023-01-20T22:05:17.827Z,54.55
2023-01-20T22:07:49.153Z,56.45
2023-01-20T22:10:18.984Z,52.13
2023-01-20T22:12:48.813Z,50.10
2023-01-20T22:15:18.499Z,47.78
2023-01-20T22:17:48.759Z,50.60
2023-01-20T22:20:19.028Z,49.13
2023-01-20T22:22:48.687Z,49.75
2023-01-20T22:25:18.200Z,52.50
2023-01-20T22:27:50.286Z,55.40
2023-01-20T22:30:20.372Z,56.47
2023-01-20T22:32:50.143Z,59.45
2023-01-20T22:35:19.707Z,64.32
2023-01-20T22:37:49.154Z,77.50
2023-01-20T22:40:18.880Z,78.97
2023-01-20T22:42:48.626Z,83.70
2023-01-20T22:45:18.131Z,81.40
2023-01-20T22:47:47.618Z,92.40
2023-01-20T22:50:17.686Z,84.43
2023-01-20T22:52:47.669Z,80.20
2023-01-20T22:55:17.517Z,74.15
2023-01-20T22:57:47.282Z,79.07
2023-01-20T23:00:18.768Z,72.22
2023-01-20T23:02:48.790Z,74.22
2023-01-20T23:05:18.476Z,74.68
2023-01-20T23:07:48.140Z,68.32
2023-01-20T23:10:37.696Z,65.40
2023-01-20T23:13:07.506Z,57.80
2023-01-20T23:15:36.839Z,56.13
2023-01-20T23:18:06.957Z,51.75
2023-01-20T23:20:36.820Z,50.70
2023-01-20T23:23:06.910Z,47.60
2023-01-20T23:25:36.901Z,48.67
2023-01-20T23:28:06.708Z,45.60
2023-01-20T23:30:36.326Z,44.83
2023-01-20T23:33:06.553Z,49.03
2023-01-20T23:35:39.936Z,44.10
2023-01-20T23:38:10.752Z,45.10
2023-01-20T23:40:40.255Z,38.00
2023-01-20T23:43:10.171Z,38.47
2023-01-20T23:45:39.769Z,42.65
2023-01-20T23:48:09.335Z,35.42
2023-01-20T23:50:39.275Z,48.83
2023-01-20T23:53:08.637Z,51.63
2023-01-20T23:55:38.969Z,53.53
2023-01-20T23:58:08.571Z,62.65
